Time;durP1;ratioP1;P1;durP2;ratioP2;P2;SDS_P1;SDS_P2;PMS_P1;PMS_P2;Temp;Humidity;BMP_temperature;BMP_pressure;BME280_temperature;BME280_humidity;BME280_pressure;Samples;Min_cycle;Max_cycle;Signal;HPM_P1;HPM_P2
2024/01/01 00:02:07;;;;;;;;;0.00;0.00;;;;;9.84;100.00;100367.19;5096857;27;65420;-87
2024/01/01 00:04:32;;;;;;;;;3.00;1.00;;;;;9.83;100.00;100364.63;5097770;27;45369;-88
2024/01/01 00:06:57;;;;;;;;;0.00;0.00;;;;;9.93;100.00;100354.78;5078750;27;73810;-86
2024/01/01 00:09:22;;;;;;;;;0.00;0.00;;;;;9.90;100.00;100363.53;5098138;27;52504;-86
2024/01/01 00:11:48;;;;;;;;;0.00;0.00;;;;;9.92;100.00;100368.66;5097731;27;69126;-86
2024/01/01 00:14:13;;;;;;;;;0.00;0.00;;;;;9.91;100.00;100361.78;5079442;27;65914;-86
2024/01/01 00:16:38;;;;;;;;;0.00;0.00;;;;;9.91;100.00;100351.38;5098643;27;45252;-86
2024/01/01 00:19:04;;;;;;;;;1.00;0.00;;;;;9.84;100.00;100374.97;5096234;27;70264;-87
2024/01/01 00:21:29;;;;;;;;;0.67;0.00;;;;;9.92;100.00;100371.25;5078711;27;72401;-86
2024/01/01 00:23:54;;;;;;;;;0.00;0.00;;;;;9.86;100.00;100375.78;5078877;27;75974;-86
2024/01/01 00:26:20;;;;;;;;;0.00;0.00;;;;;9.84;100.00;100379.31;5096399;27;60707;-86
2024/01/01 00:28:45;;;;;;;;;0.00;0.00;;;;;10.02;100.00;100372.69;5096488;27;54016;-86
2024/01/01 00:31:10;;;;;;;;;0.00;0.00;;;;;9.86;100.00;100377.50;5079545;27;55865;-87
2024/01/01 00:33:36;;;;;;;;;0.00;0.00;;;;;9.84;100.00;100394.91;5097005;27;74328;-87
2024/01/01 00:36:01;;;;;;;;;0.00;0.00;;;;;9.80;100.00;100391.53;5077893;27;72587;-87
2024/01/01 00:38:26;;;;;;;;;0.67;0.00;;;;;9.84;100.00;100385.38;5095850;27;70086;-86
2024/01/01 00:40:51;;;;;;;;;0.00;0.00;;;;;9.89;100.00;100374.81;5097478;27;70342;-87
2024/01/01 00:43:17;;;;;;;;;0.00;0.00;;;;;9.85;100.00;100376.66;5064514;28;46982;-87
2024/01/01 00:45:42;;;;;;;;;0.00;0.00;;;;;9.80;100.00;100369.91;5071351;28;73811;-87
2024/01/01 00:48:08;;;;;;;;;0.00;0.00;;;;;9.84;100.00;100361.97;5077985;27;45353;-86
2024/01/01 00:50:33;;;;;;;;;0.00;0.00;;;;;9.88;100.00;100365.34;5076019;28;45489;-86
2024/01/01 00:52:58;;;;;;;;;0.00;0.00;;;;;9.85;100.00;100363.66;5075968;28;49678;-86
2024/01/01 00:55:24;;;;;;;;;0.00;0.00;;;;;9.80;100.00;100355.16;5075257;28;65023;-86
2024/01/01 00:57:49;;;;;;;;;0.00;0.00;;;;;9.84;100.00;100372.38;5075239;28;67224;-86
2024/01/01 01:00:14;;;;;;;;;0.00;0.00;;;;;9.78;100.00;100377.75;5075205;28;69850;-85
2024/01/01 01:02:40;;;;;;;;;0.00;0.00;;;;;9.75;100.00;100369.19;5059324;28;48707;-86
2024/01/01 01:05:05;;;;;;;;;0.00;0.00;;;;;9.75;100.00;100364.00;5058731;28;45462;-86
2024/01/01 01:07:31;;;;;;;;;0.00;0.00;;;;;9.68;100.00;100376.34;5077320;28;45595;-87
2024/01/01 01:09:56;;;;;;;;;0.00;0.00;;;;;9.60;100.00;100378.31;5075638;28;48911;-87
2024/01/01 01:12:22;;;;;;;;;0.00;0.00;;;;;9.66;100.00;100367.75;5059102;28;47372;-87
2024/01/01 01:14:48;;;;;;;;;0.00;0.00;;;;;9.65;100.00;100363.44;5077127;27;45377;-87
2024/01/01 01:17:13;;;;;;;;;0.00;0.00;;;;;9.67;100.00;100364.25;5077332;28;45309;-87
2024/01/01 01:19:38;;;;;;;;;0.00;0.00;;;;;9.64;100.00;100365.19;5075855;28;50133;-86
2024/01/01 01:22:04;;;;;;;;;0.00;0.00;;;;;9.66;100.00;100366.00;5076526;27;71860;-86
2024/01/01 01:24:29;;;;;;;;;1.00;1.00;;;;;9.64;100.00;100357.41;5074861;28;74190;-86
2024/01/01 01:26:54;;;;;;;;;0.00;0.00;;;;;9.61;100.00;100361.84;5075687;28;52185;-88
2024/01/01 01:29:20;;;;;;;;;0.00;0.00;;;;;9.64;100.00;100361.75;5059607;28;45345;-87
2024/01/01 01:31:46;;;;;;;;;0.00;0.00;;;;;9.68;100.00;100366.78;5059139;28;47032;-86
2024/01/01 01:34:12;;;;;;;;;0.00;0.00;;;;;9.62;100.00;100373.91;5093050;27;45313;-87
2024/01/01 01:36:37;;;;;;;;;0.00;0.00;;;;;9.67;100.00;100372.03;5059747;28;45307;-87
2024/01/01 01:39:02;;;;;;;;;0.00;0.00;;;;;9.62;100.00;100380.00;5075775;28;53044;-86
2024/01/01 01:41:28;;;;;;;;;0.00;0.00;;;;;9.65;100.00;100382.47;5058204;28;57192;-86
2024/01/01 01:43:53;;;;;;;;;0.00;0.00;;;;;9.87;100.00;100398.25;5094875;27;67356;-87
2024/01/01 01:46:19;;;;;;;;;0.00;0.00;;;;;9.65;100.00;100390.28;5097473;27;45372;-86
2024/01/01 01:48:44;;;;;;;;;3.00;3.00;;;;;9.66;100.00;100393.75;5097756;27;51398;-85
2024/01/01 01:51:10;;;;;;;;;2.00;0.00;;;;;9.64;100.00;100398.13;5099582;27;45342;-86
2024/01/01 01:53:35;;;;;;;;;0.00;0.00;;;;;9.61;100.00;100406.84;5081861;27;71578;-86
2024/01/01 01:56:03;;;;;;;;;0.00;0.00;;;;;9.68;100.00;100399.75;5099642;27;45262;-86
2024/01/01 01:58:29;;;;;;;;;3.00;0.00;;;;;9.71;100.00;100398.78;5100831;27;45412;-86
2024/01/01 02:00:55;;;;;;;;;0.00;0.00;;;;;9.68;100.00;100403.19;5100727;27;47302;-86
2024/01/01 02:03:20;;;;;;;;;0.00;0.00;;;;;9.70;100.00;100410.94;5100333;27;45205;-86
2024/01/01 02:05:46;;;;;;;;;0.00;0.00;;;;;9.67;100.00;100403.22;5099951;27;45198;-86
2024/01/01 02:08:12;;;;;;;;;0.00;0.00;;;;;9.63;100.00;100405.06;5098521;27;70290;-87
2024/01/01 02:10:37;;;;;;;;;0.00;0.00;;;;;9.57;100.00;100413.06;5082195;27;47397;-86
2024/01/01 02:13:03;;;;;;;;;0.00;0.00;;;;;9.63;100.00;100406.81;5098685;27;68318;-86
2024/01/01 02:15:28;;;;;;;;;0.00;0.00;;;;;9.60;100.00;100420.78;5099248;27;45871;-86
2024/01/01 02:17:54;;;;;;;;;0.00;0.00;;;;;9.61;100.00;100409.47;5099235;27;50261;-86
2024/01/01 02:20:19;;;;;;;;;0.00;0.00;;;;;9.60;100.00;100419.91;5081392;27;73876;-86
2024/01/01 02:22:44;;;;;;;;;1.00;1.00;;;;;9.61;100.00;100421.59;5081027;27;74647;-85
2024/01/01 02:25:10;;;;;;;;;0.00;0.00;;;;;9.58;100.00;100417.34;5082204;27;45549;-86
2024/01/01 02:27:36;;;;;;;;;0.00;0.00;;;;;9.57;100.00;100422.59;5099617;27;45416;-86
2024/01/01 02:30:02;;;;;;;;;0.00;0.00;;;;;9.61;100.00;100425.06;5081678;27;47364;-86
2024/01/01 02:32:27;;;;;;;;;0.00;0.00;;;;;9.50;100.00;100429.72;5100209;27;45423;-86
2024/01/01 02:34:53;;;;;;;;;0.00;0.00;;;;;9.53;100.00;100418.38;5080969;27;71367;-86
2024/01/01 02:37:18;;;;;;;;;0.00;0.00;;;;;9.41;100.00;100433.41;5099798;27;45348;-86
2024/01/01 02:39:43;;;;;;;;;0.00;0.00;;;;;9.56;100.00;100418.28;5098044;27;73884;-85
2024/01/01 02:42:09;;;;;;;;;0.00;0.00;;;;;9.59;100.00;100421.66;5092086;27;72613;-86
2024/01/01 02:44:34;;;;;;;;;0.00;0.00;;;;;9.52;100.00;100422.72;5060249;28;69880;-86
2024/01/01 02:46:59;;;;;;;;;0.00;0.00;;;;;9.58;100.00;100432.94;5077658;28;66427;-85
2024/01/01 02:49:25;;;;;;;;;0.00;0.00;;;;;9.60;100.00;100425.97;5060065;28;74430;-86
2024/01/01 02:51:50;;;;;;;;;0.00;0.00;;;;;9.66;100.00;100422.34;5060083;28;72382;-86
2024/01/01 02:54:16;;;;;;;;;0.00;0.00;;;;;9.72;100.00;100440.31;5079195;28;55271;-86
2024/01/01 02:56:41;;;;;;;;;0.00;0.00;;;;;9.66;100.00;100450.91;5077246;28;70207;-87
2024/01/01 02:59:07;;;;;;;;;0.00;0.00;;;;;9.65;100.00;100444.84;5076558;28;60789;-86
2024/01/01 03:01:32;;;;;;;;;0.00;0.00;;;;;9.66;100.00;100438.75;5079239;27;45364;-86
2024/01/01 03:03:58;;;;;;;;;0.00;0.00;;;;;9.67;100.00;100442.22;5079471;28;45298;-86
2024/01/01 03:06:23;;;;;;;;;0.00;0.00;;;;;9.67;100.00;100447.41;5061258;28;45451;-86
2024/01/01 03:08:48;;;;;;;;;0.00;0.00;;;;;9.88;100.00;100441.56;5076977;28;73098;-87
2024/01/01 03:11:14;;;;;;;;;0.00;0.00;;;;;9.67;100.00;100450.00;5061233;28;45586;-88
2024/01/01 03:13:39;;;;;;;;;0.00;0.00;;;;;9.66;100.00;100448.31;5078305;27;66429;-87
2024/01/01 03:16:06;;;;;;;;;0.00;0.00;;;;;9.67;100.00;100458.63;5077255;28;56319;-87
2024/01/01 03:18:31;;;;;;;;;0.00;0.00;;;;;9.72;100.00;100457.69;5079109;27;46456;-87
2024/01/01 03:20:57;;;;;;;;;0.00;0.00;;;;;9.75;100.00;100453.25;5059765;28;75561;-85
2024/01/01 03:23:22;;;;;;;;;0.00;0.00;;;;;9.73;100.00;100465.41;5078073;28;45411;-88
2024/01/01 03:25:47;;;;;;;;;0.00;0.00;;;;;9.73;100.00;100461.97;5078068;28;45405;-86
2024/01/01 03:28:13;;;;;;;;;0.00;0.00;;;;;9.99;100.00;100462.03;5077305;28;46484;-87
2024/01/01 03:30:38;;;;;;;;;0.00;0.00;;;;;9.81;100.00;100449.59;5077074;28;73074;-86
2024/01/01 03:33:03;;;;;;;;;0.00;0.00;;;;;9.69;100.00;100456.88;5077315;28;57576;-86
2024/01/01 03:35:32;;;;;;;;;0.00;0.00;;;;;9.67;100.00;100463.00;5079020;28;45557;-86
2024/01/01 03:38:06;;;;;;;;;0.00;0.00;;;;;9.81;100.00;100462.59;5077618;28;45464;-86
2024/01/01 03:40:31;;;;;;;;;0.00;0.00;;;;;9.61;100.00;100474.44;5077603;28;45415;-85
2024/01/01 03:42:57;;;;;;;;;0.00;0.00;;;;;9.79;100.00;100482.59;5078760;27;45600;-87
2024/01/01 03:45:22;;;;;;;;;0.00;0.00;;;;;9.55;100.00;100489.34;5078003;28;45325;-87
2024/01/01 03:47:47;;;;;;;;;0.00;0.00;;;;;9.48;100.00;100488.66;5059237;28;77060;-86
2024/01/01 03:50:14;;;;;;;;;0.00;0.00;;;;;9.44;100.00;100498.28;5078349;27;49482;-86
2024/01/01 03:52:40;;;;;;;;;0.00;0.00;;;;;9.42;100.00;100497.50;5077517;28;45558;-86
2024/01/01 03:55:06;;;;;;;;;0.00;0.00;;;;;9.36;100.00;100492.47;5077452;28;45412;-87
2024/01/01 03:57:35;;;;;;;;;0.00;0.00;;;;;9.53;100.00;100491.13;5076433;28;46975;-86
2024/01/01 04:00:01;;;;;;;;;0.00;0.00;;;;;9.44;100.00;100479.28;5060723;28;45224;-86
2024/01/01 04:02:26;;;;;;;;;0.00;0.00;;;;;9.37;100.00;100486.38;5077463;28;45389;-87
2024/01/01 04:04:51;;;;;;;;;0.00;0.00;;;;;9.35;100.00;100495.09;5075998;28;70315;-86
2024/01/01 04:07:17;;;;;;;;;0.00;0.00;;;;;9.33;100.00;100489.94;5075856;28;75228;-85
2024/01/01 04:09:43;;;;;;;;;0.00;0.00;;;;;9.27;100.00;100506.56;5094652;27;45251;-89
2024/01/01 04:12:08;;;;;;;;;0.00;0.00;;;;;9.24;100.00;100495.41;5076452;28;45607;-90
2024/01/01 04:14:34;;;;;;;;;0.00;0.00;;;;;9.21;100.00;100495.47;5077817;28;45402;-90
2024/01/01 04:16:59;;;;;;;;;0.00;0.00;;;;;9.22;100.00;100502.38;5077818;28;72286;-89
2024/01/01 04:19:25;;;;;;;;;0.00;0.00;;;;;9.21;100.00;100496.34;5076947;28;64963;-90
2024/01/01 04:21:50;;;;;;;;;1.00;1.00;;;;;9.19;100.00;100502.44;5076994;28;65945;-90
2024/01/01 04:24:15;;;;;;;;;0.00;0.00;;;;;9.11;100.00;100507.84;5060651;28;52334;-91
2024/01/01 04:26:43;;;;;;;;;0.00;0.00;;;;;9.06;100.00;100522.69;5059417;28;68543;-89
2024/01/01 04:29:08;;;;;;;;;0.00;0.00;;;;;9.12;100.00;100504.38;5078556;27;45483;-92
2024/01/01 04:31:34;;;;;;;;;0.00;0.00;;;;;9.11;100.00;100516.50;5077584;28;45405;-91
2024/01/01 04:33:59;;;;;;;;;0.00;0.00;;;;;9.14;100.00;100519.91;5076897;28;56648;-91
2024/01/01 04:36:24;;;;;;;;;0.00;0.00;;;;;9.09;100.00;100510.50;5060248;28;47322;-91
2024/01/01 04:38:55;;;;;;;;;0.00;0.00;;;;;9.08;100.00;100518.31;5077265;28;46472;-90
2024/01/01 04:41:20;;;;;;;;;0.00;0.00;;;;;9.03;100.00;100520.19;5077071;27;45340;-90
2024/01/01 04:43:47;;;;;;;;;0.00;0.00;;;;;9.00;100.00;100525.47;5077422;27;45264;-90
2024/01/01 04:46:13;;;;;;;;;0.00;0.00;;;;;8.97;100.00;100533.31;5080885;27;47258;-90
2024/01/01 04:48:38;;;;;;;;;0.00;0.00;;;;;9.01;100.00;100520.25;5080407;27;45318;-91
2024/01/01 04:51:04;;;;;;;;;0.00;0.00;;;;;9.03;100.00;100517.59;5081079;27;45325;-91
2024/01/01 04:53:29;;;;;;;;;0.00;0.00;;;;;8.88;100.00;100527.47;5097733;27;45271;-89
2024/01/01 04:55:55;;;;;;;;;0.00;0.00;;;;;8.96;100.00;100529.03;5080011;27;54125;-89
2024/01/01 04:58:22;;;;;;;;;0.00;0.00;;;;;8.97;100.00;100530.72;5097766;27;45259;-89
2024/01/01 05:00:48;;;;;;;;;0.00;0.00;;;;;8.97;100.00;100525.53;5097861;27;45305;-90
2024/01/01 05:03:23;;;;;;;;;0.00;0.00;;;;;8.90;100.00;100530.88;5080171;27;56431;-89
2024/01/01 05:05:49;;;;;;;;;0.00;0.00;;;;;8.83;100.00;100555.28;5097481;27;46463;-88
2024/01/01 05:08:14;;;;;;;;;0.00;0.00;;;;;8.95;100.00;100535.94;5080431;27;45559;-90
2024/01/01 05:10:40;;;;;;;;;0.00;0.00;;;;;8.90;100.00;100538.69;5080244;27;45393;-89
2024/01/01 05:13:07;;;;;;;;;0.00;0.00;;;;;8.98;100.00;100548.88;5097402;27;45287;-91
2024/01/01 05:15:33;;;;;;;;;1.00;0.00;;;;;8.93;100.00;100544.69;5098097;27;45617;-90
2024/01/01 05:17:58;;;;;;;;;0.00;0.00;;;;;8.94;100.00;100546.41;5097390;27;45336;-91
2024/01/01 05:20:34;;;;;;;;;;;;;;;;;;;;;
2024/01/01 05:23:01;;;;;;;;;1.00;1.00;;;;;8.82;100.00;100570.91;5093671;27;70324;-89
2024/01/01 05:25:27;;;;;;;;;0.00;0.00;;;;;8.89;100.00;100570.69;5096848;27;46429;-91
2024/01/01 05:27:52;;;;;;;;;0.00;0.00;;;;;8.87;100.00;100572.50;5079592;27;57057;-91
2024/01/01 05:30:18;;;;;;;;;0.00;0.00;;;;;8.89;100.00;100560.31;5080254;27;45438;-90
2024/01/01 05:32:48;;;;;;;;;0.00;0.00;;;;;8.79;100.00;100571.84;5097449;27;45428;-89
2024/01/01 05:35:13;;;;;;;;;0.00;0.00;;;;;8.77;100.00;100567.59;5096894;27;47619;-91
2024/01/01 05:37:39;;;;;;;;;0.00;0.00;;;;;8.83;100.00;100570.88;5079998;27;45987;-91
2024/01/01 05:40:04;;;;;;;;;0.00;0.00;;;;;8.81;100.00;100567.47;5096715;27;45404;-91
2024/01/01 05:42:31;;;;;;;;;0.00;0.00;;;;;8.74;100.00;100565.06;5076143;28;45368;-89
2024/01/01 05:44:58;;;;;;;;;0.00;0.00;;;;;8.73;100.00;100559.00;5039368;28;46176;-91
2024/01/01 05:47:26;;;;;;;;;0.00;0.00;;;;;8.69;100.00;100576.41;5055985;28;45300;-88
2024/01/01 05:49:51;;;;;;;;;0.00;0.00;;;;;8.74;100.00;100584.06;5056400;28;45367;-90
2024/01/01 05:52:21;;;;;;;;;0.00;0.00;;;;;8.72;100.00;100575.47;5055485;28;61273;-90
2024/01/01 05:54:46;;;;;;;;;0.00;0.00;;;;;8.78;100.00;100577.91;5055561;28;45327;-91
2024/01/01 05:57:14;;;;;;;;;0.00;0.00;;;;;8.72;100.00;100581.50;5056527;28;58580;-89
2024/01/01 05:59:39;;;;;;;;;0.00;0.00;;;;;8.77;100.00;100585.75;5055980;28;45365;-91
2024/01/01 06:02:05;;;;;;;;;0.00;0.00;;;;;8.78;100.00;100595.22;5057115;28;45288;-90
2024/01/01 06:04:32;;;;;;;;;0.00;0.00;;;;;8.70;100.00;100592.81;5039007;28;47472;-89
2024/01/01 06:06:58;;;;;;;;;0.00;0.00;;;;;8.70;100.00;100587.63;5055986;28;45387;-90
2024/01/01 06:09:23;;;;;;;;;0.00;0.00;;;;;8.74;100.00;100594.44;5055018;28;54386;-91
2024/01/01 06:11:49;;;;;;;;;0.00;0.00;;;;;8.81;100.00;100582.19;5056047;28;45378;-89
2024/01/01 06:14:14;;;;;;;;;0.00;0.00;;;;;8.75;100.00;100580.59;5055710;28;47104;-90
2024/01/01 06:16:44;;;;;;;;;0.00;0.00;;;;;8.74;100.00;100598.78;5056835;28;45352;-90
2024/01/01 06:19:10;;;;;;;;;0.00;0.00;;;;;8.74;100.00;100599.63;5055711;28;45428;-90
2024/01/01 06:21:35;;;;;;;;;0.00;0.00;;;;;8.70;100.00;100588.47;5056946;28;45345;-90
2024/01/01 06:24:01;;;;;;;;;0.00;0.00;;;;;8.74;100.00;100604.81;5055441;28;48597;-91
2024/01/01 06:26:26;;;;;;;;;0.00;0.00;;;;;8.74;100.00;100603.97;5055113;28;62525;-89
2024/01/01 06:28:51;;;;;;;;;0.00;0.00;;;;;8.77;100.00;100609.09;5055953;28;45564;-90
2024/01/01 06:31:19;;;;;;;;;0.00;0.00;;;;;8.77;100.00;100617.75;5055764;28;45441;-89
2024/01/01 06:33:47;;;;;;;;;0.00;0.00;;;;;8.73;100.00;100613.50;5038615;28;47546;-90
2024/01/01 06:36:12;;;;;;;;;0.00;0.00;;;;;8.69;100.00;100627.44;5058641;28;45316;-89
2024/01/01 06:38:38;;;;;;;;;0.00;0.00;;;;;8.71;100.00;100625.66;5042447;28;45523;-90
2024/01/01 06:41:06;;;;;;;;;0.00;0.00;;;;;8.62;100.00;100618.94;5059303;28;45402;-90
2024/01/01 06:43:33;;;;;;;;;0.00;0.00;;;;;8.74;100.00;100625.59;5075627;28;46339;-90
2024/01/01 06:45:59;;;;;;;;;0.00;0.00;;;;;8.74;100.00;100632.53;5080316;27;45491;-91
2024/01/01 06:48:24;;;;;;;;;0.00;0.00;;;;;8.71;100.00;100633.44;5079446;28;45211;-90
2024/01/01 06:50:50;;;;;;;;;0.00;0.00;;;;;8.68;100.00;100626.56;5079261;28;45470;-90
2024/01/01 06:53:15;;;;;;;;;0.00;0.00;;;;;8.68;100.00;100628.34;5079617;28;46465;-90
2024/01/01 06:55:40;;;;;;;;;0.00;0.00;;;;;8.72;100.00;100638.59;5079049;28;45256;-92
2024/01/01 06:58:06;;;;;;;;;0.00;0.00;;;;;8.75;100.00;100649.78;5062308;28;45204;-92
2024/01/01 07:00:31;;;;;;;;;0.00;0.00;;;;;8.77;100.00;100645.44;5079386;28;45227;-92
2024/01/01 07:02:59;;;;;;;;;0.00;0.00;;;;;8.71;100.00;100662.84;5078931;27;47057;-91
2024/01/01 07:05:26;;;;;;;;;0.00;0.00;;;;;8.70;100.00;100662.88;5079259;27;45440;-91
2024/01/01 07:07:51;;;;;;;;;0.00;0.00;;;;;8.70;100.00;100668.91;5078912;28;45689;-91
2024/01/01 07:10:17;;;;;;;;;0.00;0.00;;;;;8.72;100.00;100666.28;5079126;28;45589;-92
2024/01/01 07:12:42;;;;;;;;;0.00;0.00;;;;;8.79;100.00;100677.41;5061481;28;58255;-92
2024/01/01 07:15:08;;;;;;;;;1.00;0.00;;;;;8.79;100.00;100686.03;5061417;28;52784;-91
2024/01/01 07:17:33;;;;;;;;;0.00;0.00;;;;;8.78;100.00;100673.94;5078827;28;45332;-92
2024/01/01 07:20:00;;;;;;;;;0.00;0.00;;;;;8.83;100.00;100694.59;5060969;28;67455;-93
2024/01/01 07:22:25;;;;;;;;;0.00;0.00;;;;;8.77;100.00;100703.38;5061746;28;47233;-91
2024/01/01 07:24:50;;;;;;;;;0.00;0.00;;;;;8.82;100.00;100693.75;5061718;28;45335;-92
2024/01/01 07:27:16;;;;;;;;;0.00;0.00;;;;;8.78;100.00;100696.44;5078751;27;45527;-91
2024/01/01 07:29:41;;;;;;;;;0.00;0.00;;;;;8.78;100.00;100697.28;5078200;28;54002;-92
2024/01/01 07:32:07;;;;;;;;;0.00;0.00;;;;;8.80;100.00;100697.25;5078018;28;48243;-93
2024/01/01 07:34:32;;;;;;;;;0.00;0.00;;;;;8.74;100.00;100707.78;5078696;27;45201;-91
2024/01/01 07:36:58;;;;;;;;;0.00;0.00;;;;;8.71;100.00;100708.69;5078348;28;53339;-92
2024/01/01 07:39:24;;;;;;;;;0.00;0.00;;;;;8.71;100.00;100709.56;5078479;28;45223;-91
2024/01/01 07:41:50;;;;;;;;;0.00;0.00;;;;;8.68;100.00;100714.81;5061327;28;47795;-92
2024/01/01 07:44:16;;;;;;;;;0.00;0.00;;;;;8.72;100.00;100715.59;5078464;28;45403;-92
2024/01/01 07:46:42;;;;;;;;;0.00;0.00;;;;;8.65;100.00;100716.63;5079147;27;45405;-91
2024/01/01 07:49:07;;;;;;;;;0.50;0.00;;;;;8.70;100.00;100733.78;5095111;27;45342;-92
2024/01/01 07:51:33;;;;;;;;;0.00;0.00;;;;;8.65;100.00;100730.44;5061068;28;47261;-89
2024/01/01 07:53:59;;;;;;;;;0.00;0.00;;;;;8.70;100.00;100728.59;5078912;27;45350;-90
2024/01/01 07:56:30;;;;;;;;;0.00;0.00;;;;;8.73;100.00;100738.09;5078283;28;45307;-89
2024/01/01 07:58:55;;;;;;;;;0.00;0.00;;;;;8.75;100.00;100740.63;5079230;27;45481;-91
2024/01/01 08:01:23;;;;;;;;;0.00;0.00;;;;;8.73;100.00;100745.88;5077904;27;47309;-90
2024/01/01 08:03:49;;;;;;;;;0.00;0.00;;;;;8.76;100.00;100735.41;5077768;27;45444;-90
2024/01/01 08:06:14;;;;;;;;;0.00;0.00;;;;;8.78;100.00;100749.19;5078093;28;45212;-89
2024/01/01 08:08:40;;;;;;;;;0.00;0.00;;;;;8.83;100.00;100752.56;5060972;28;45378;-89
2024/01/01 08:11:06;;;;;;;;;0.00;0.00;;;;;8.82;100.00;100760.38;5078782;27;45266;-89
2024/01/01 08:13:31;;;;;;;;;0.00;0.00;;;;;8.86;100.00;100760.28;5077899;28;45358;-89
2024/01/01 08:15:57;;;;;;;;;0.00;0.00;;;;;8.84;100.00;100761.19;5060983;28;45378;-90
2024/01/01 08:18:22;;;;;;;;;0.00;0.00;;;;;8.87;100.00;100764.56;5077638;28;45563;-90
2024/01/01 08:20:48;;;;;;;;;0.00;0.00;;;;;8.89;100.00;100759.34;5077850;28;45317;-90
2024/01/01 08:23:13;;;;;;;;;0.00;0.00;;;;;8.98;100.00;100760.91;5077914;28;45255;-90
2024/01/01 08:25:39;;;;;;;;;0.00;0.00;;;;;8.95;100.00;100777.38;5060532;28;58280;-90
2024/01/01 08:28:05;;;;;;;;;0.00;0.00;;;;;9.03;100.00;100770.31;5077825;28;45848;-92
2024/01/01 08:30:30;;;;;;;;;0.00;0.00;;;;;9.02;100.00;100778.13;5077602;27;47560;-91
2024/01/01 08:32:56;;;;;;;;;0.00;0.00;;;;;9.03;100.00;100778.09;5060468;28;46110;-91
2024/01/01 08:35:22;;;;;;;;;0.00;0.00;;;;;9.01;100.00;100779.88;5077774;28;45415;-90
2024/01/01 08:37:48;;;;;;;;;0.00;0.00;;;;;9.04;100.00;100799.72;5077487;28;45293;-90
2024/01/01 08:40:13;;;;;;;;;0.00;0.00;;;;;9.05;100.00;100791.91;5077645;28;45419;-91
2024/01/01 08:42:41;;;;;;;;;0.00;0.00;;;;;9.11;100.00;100801.28;5077089;28;45370;-90
2024/01/01 08:45:07;;;;;;;;;0.25;0.00;;;;;9.15;100.00;100804.69;5077282;28;45272;-91
2024/01/01 08:47:32;;;;;;;;;0.00;0.00;;;;;9.19;100.00;100817.53;5078377;28;45204;-92
2024/01/01 08:49:57;;;;;;;;;0.00;0.00;;;;;9.19;100.00;100811.50;5078399;27;47281;-90
2024/01/01 08:52:23;;;;;;;;;0.00;0.00;;;;;9.19;100.00;100814.94;5076828;28;52394;-91
2024/01/01 08:54:48;;;;;;;;;0.00;0.00;;;;;9.25;100.00;100816.59;5060261;28;45267;-91
2024/01/01 08:57:14;;;;;;;;;0.00;0.00;;;;;9.32;100.00;100817.28;5059558;28;45344;-91
2024/01/01 08:59:40;;;;;;;;;0.00;0.00;;;;;9.32;100.00;100814.69;5078232;27;45801;-91
2024/01/01 09:02:06;;;;;;;;;0.00;0.00;;;;;9.30;100.00;100819.91;5078074;27;45363;-89
2024/01/01 09:04:32;;;;;;;;;0.00;0.00;;;;;9.41;100.00;100817.94;5060212;28;45358;-90
2024/01/01 09:07:00;;;;;;;;;0.00;0.00;;;;;9.48;100.00;100824.69;5077217;28;45670;-91
2024/01/01 09:09:33;;;;;;;;;0.00;0.00;;;;;9.43;100.00;100823.09;5077205;28;46869;-89
2024/01/01 09:11:58;;;;;;;;;0.00;0.00;;;;;9.59;100.00;100818.41;5060626;28;45518;-91
2024/01/01 09:14:25;;;;;;;;;0.00;0.00;;;;;9.63;100.00;100817.44;5059576;28;56687;-90
2024/01/01 09:16:55;;;;;;;;;0.00;0.00;;;;;9.63;100.00;100826.09;5076637;28;45288;-89
2024/01/01 09:19:23;;;;;;;;;0.00;0.00;;;;;9.71;100.00;100825.06;5077084;28;45441;-91
2024/01/01 09:21:48;;;;;;;;;0.00;0.00;;;;;9.70;100.00;100832.00;5077778;27;45355;-90
2024/01/01 09:24:15;;;;;;;;;0.00;0.00;;;;;9.75;100.00;100822.34;5076416;28;49576;-91
2024/01/01 09:26:40;;;;;;;;;0.00;0.00;;;;;9.85;100.00;100835.97;5077193;28;45291;-90
2024/01/01 09:29:05;;;;;;;;;0.00;0.00;;;;;9.93;100.00;100833.19;5077751;28;45226;-90
2024/01/01 09:31:34;;;;;;;;;0.00;0.00;;;;;9.92;100.00;100834.94;5076367;28;45200;-90
2024/01/01 09:34:03;;;;;;;;;0.00;0.00;;;;;9.97;100.00;100848.66;5076809;28;45377;-91
2024/01/01 09:36:31;;;;;;;;;0.00;0.00;;;;;10.05;100.00;100841.53;5077022;28;45484;-91
2024/01/01 09:38:56;;;;;;;;;0.00;0.00;;;;;10.25;100.00;100842.75;5076520;28;45292;-90
2024/01/01 09:41:26;;;;;;;;;0.00;0.00;;;;;10.13;100.00;100845.69;5059497;28;45439;-90
2024/01/01 09:43:55;;;;;;;;;0.00;0.00;;;;;10.11;100.00;100850.94;5040992;28;45360;-91
2024/01/01 09:46:21;;;;;;;;;0.00;0.00;;;;;10.10;100.00;100850.97;5076413;28;45451;-90
2024/01/01 09:48:47;;;;;;;;;0.00;0.00;;;;;10.14;100.00;100845.66;5077531;27;45396;-91
2024/01/01 09:51:13;;;;;;;;;0.00;0.00;;;;;10.18;100.00;100852.50;5059477;28;45267;-91
2024/01/01 09:53:38;;;;;;;;;0.00;0.00;;;;;10.18;100.00;100862.06;5077734;27;45191;-89
2024/01/01 09:56:04;;;;;;;;;0.00;0.00;;;;;10.24;100.00;100874.88;5076593;28;45708;-90
2024/01/01 09:58:42;;;;;;;;;0.00;0.00;;;;;10.33;100.00;100851.28;5059691;28;47175;-91
2024/01/01 10:01:10;;;;;;;;;0.00;0.00;;;;;10.37;100.00;100865.06;5076426;28;45354;-91
2024/01/01 10:03:35;;;;;;;;;0.00;0.00;;;;;10.37;100.00;100858.09;5077833;28;45315;-91
2024/01/01 10:06:11;;;;;;;;;0.00;0.00;;;;;10.41;100.00;100866.69;5060057;28;45528;-90
2024/01/01 10:08:37;;;;;;;;;0.00;0.00;;;;;10.44;100.00;100851.84;5077192;28;48183;-91
2024/01/01 10:11:23;;;;;;;;;0.00;0.00;;;;;10.49;100.00;100861.28;5097243;27;45987;-91
2024/01/01 10:13:49;;;;;;;;;0.00;0.00;;;;;10.52;100.00;100863.81;5062388;28;52249;-91
2024/01/01 10:16:26;;;;;;;;;0.00;0.00;;;;;10.56;100.00;100857.63;5081093;27;45306;-90
2024/01/01 10:18:56;;;;;;;;;0.00;0.00;;;;;10.58;100.00;100854.06;5080555;27;45584;-91
2024/01/01 10:21:28;;;;;;;;;0.00;0.00;;;;;10.65;100.00;100858.22;5063038;28;45264;-90
2024/01/01 10:23:55;;;;;;;;;0.00;0.00;;;;;10.78;100.00;100852.69;5080049;28;45459;-91
2024/01/01 10:26:21;;;;;;;;;0.00;0.00;;;;;10.94;100.00;100859.16;5081025;27;45322;-91
2024/01/01 10:28:46;;;;;;;;;0.00;0.00;;;;;11.02;100.00;100856.34;5062416;28;46892;-91
2024/01/01 10:31:15;;;;;;;;;0.00;0.00;;;;;11.24;100.00;100861.78;5062393;28;58992;-90
2024/01/01 10:33:41;;;;;;;;;0.00;0.00;;;;;11.29;100.00;100859.00;5063415;28;45350;-90
2024/01/01 10:36:07;;;;;;;;;0.00;0.00;;;;;11.39;100.00;100860.47;5062615;28;45680;-91
2024/01/01 10:38:33;;;;;;;;;0.00;0.00;;;;;11.45;100.00;100856.81;5062553;28;47182;-91
2024/01/01 10:40:59;;;;;;;;;0.00;0.00;;;;;11.43;100.00;100849.88;5079467;28;45430;-91
2024/01/01 10:43:28;;;;;;;;;0.00;0.00;;;;;11.37;100.00;100837.03;5080273;27;45582;-91
2024/01/01 10:46:05;;;;;;;;;0.00;0.00;;;;;11.53;100.00;100840.00;5079605;28;45274;-91
2024/01/01 10:48:32;;;;;;;;;0.00;0.00;;;;;11.60;100.00;100845.91;5079461;28;47315;-91
2024/01/01 10:51:16;;;;;;;;;0.00;0.00;;;;;11.60;100.00;100851.97;5079473;28;45453;-91
2024/01/01 10:54:05;;;;;;;;;0.00;0.00;;;;;11.63;100.00;100851.03;5080457;28;45416;-89
2024/01/01 10:56:43;;;;;;;;;0.00;0.00;;;;;11.69;100.00;100849.97;5018557;28;45244;-91
2024/01/01 10:59:20;;;;;;;;;0.00;0.00;;;;;11.77;100.00;100845.34;5001293;28;47242;-92
2024/01/01 11:01:50;;;;;;;;;0.00;0.00;;;;;11.86;100.00;100852.03;5001742;28;45446;-91
2024/01/01 11:04:22;;;;;;;;;0.00;0.00;;;;;11.68;100.00;100840.44;5001752;28;45308;-91
2024/01/01 11:06:47;;;;;;;;;0.00;0.00;;;;;11.68;100.00;100845.66;5001815;28;45530;-91
2024/01/01 11:09:19;;;;;;;;;0.00;0.00;;;;;11.70;100.00;100849.94;5017582;28;46509;-91
2024/01/01 11:11:51;;;;;;;;;0.00;0.00;;;;;11.73;100.00;100852.44;5001203;28;45398;-90
2024/01/01 11:14:32;;;;;;;;;0.00;0.00;;;;;11.84;100.00;100853.84;5017855;28;45416;-90
2024/01/01 11:17:01;;;;;;;;;0.00;0.00;;;;;11.92;100.00;100857.97;5001474;28;45439;-91
2024/01/01 11:19:53;;;;;;;;;0.00;0.00;;;;;12.11;100.00;100854.72;5018488;28;46176;-90
2024/01/01 11:22:28;;;;;;;;;0.00;0.00;;;;;12.27;100.00;100855.06;5015942;28;45430;-91